Philip, SD

1:58 PM MST on November 23, 2014 (GMT -0700)
Rapid City | Change Station
CLOSE
Current Station
Airport
Location: Rapid City,
Elevation: 3166 ft
Nearby Weather Stations
Active Advisory: Wind Advisory Active Notice: Local Storm Report

Elev 3166 ft 44.05 °N, 103.06 °W | Updated 6 minutes ago

Clear
Clear
40 °F
Feels Like 27 °F
N
40
Wind Variable Wind from NW
Gusts 51 mph

Today
High -- | Low -- °F
--% Chance of Precip.
Yesterday
High -- | Low -- °F
Precip. -- in
6:52 AM 4:13 PM
New Moon, 2% visible
Pressure 29.73 in
Visibility 10.0 miles
Clouds Mostly Cloudy 4900 ft
Windchill 27 °F
Dew Point 21 °F
Humidity 47%
Rainfall 0.00 in
Snow Depth Not available.
UV 1 out of 12
Pollen .10 out of 12
Air Quality Not available.
Flu Activity Not available.
METAR KRAP 232052Z 32035G44KT 10SM BKN049 04/M06 A2969 RMK AO2 PK WND 31044/2046 SLP065 6//// T00441061 56003 PNO $

More Conditions Fewer Conditions

Pressure 29.73 in
Visibility 10.0 miles
Clouds Mostly Cloudy 4900 ft
Windchill 27 °F
Dew Point 21 °F
Humidity 47%
Rainfall 0.00 in
Snow Depth Not available.
UV 1 out of 12
Pollen .10 out of 12
Air Quality Not available.
Flu Activity Not available.
METAR KRAP 232052Z 32035G44KT 10SM BKN049 04/M06 A2969 RMK AO2 PK WND 31044/2046 SLP065 6//// T00441061 56003 PNO $

More Conditions Fewer Conditions

10-Day Weather Forecast

Almanac

Astronomy

Nov. 23, 2014 Rise Set
Actual Time
Civil Twilight
Nautical Twilight
Astronomical Twilight
Moon
Length of Visible Light
Length of Day
Tomorrow will be .
, % of the Moon is Illuminated

Today's Extremes

State Highs State Lows

Community

WunderPhotos

Upload Photos

1,773,171 photos uploaded!

WunderBlogs® & News

Nearby

Air Quality

  Air Quality AQ Index Pollutant
Not available.

Snow Depth

Station Depth Elevation

Earthquake Activity

City Distance Mag. Time & Date
Minimum magnitude displayed is 2.5.

Coastal Water Temperatures

Place Temperature

Nearby Weather Stations